sensor_id;sensor_type;location;lat;lon;timestamp;P1;durP1;ratioP1;P2;durP2;ratioP2
1601;SDS011;794;48.592;9.634;2024-02-14T00:01:26;5.93;;;3.07;;
1601;SDS011;794;48.592;9.634;2024-02-14T00:03:54;2.47;;;2.27;;
1601;SDS011;794;48.592;9.634;2024-02-14T00:06:20;2.60;;;2.33;;
1601;SDS011;794;48.592;9.634;2024-02-14T00:08:48;5.03;;;1.93;;
1601;SDS011;794;48.592;9.634;2024-02-14T00:11:15;2.77;;;2.37;;
1601;SDS011;794;48.592;9.634;2024-02-14T00:13:42;5.23;;;2.30;;
1601;SDS011;794;48.592;9.634;2024-02-14T00:16:11;3.63;;;1.90;;
1601;SDS011;794;48.592;9.634;2024-02-14T00:18:37;2.00;;;1.90;;
1601;SDS011;794;48.592;9.634;2024-02-14T00:21:04;2.40;;;1.40;;
1601;SDS011;794;48.592;9.634;2024-02-14T00:23:31;2.20;;;1.60;;
1601;SDS011;794;48.592;9.634;2024-02-14T00:25:58;2.03;;;1.83;;
1601;SDS011;794;48.592;9.634;2024-02-14T00:28:25;1.90;;;1.60;;
1601;SDS011;794;48.592;9.634;2024-02-14T00:30:52;1.97;;;1.77;;
1601;SDS011;794;48.592;9.634;2024-02-14T00:33:21;1.83;;;1.37;;
1601;SDS011;794;48.592;9.634;2024-02-14T00:35:47;2.60;;;1.50;;
1601;SDS011;794;48.592;9.634;2024-02-14T00:38:14;2.30;;;1.70;;
1601;SDS011;794;48.592;9.634;2024-02-14T00:40:41;2.40;;;1.83;;
1601;SDS011;794;48.592;9.634;2024-02-14T00:43:08;2.20;;;1.80;;
1601;SDS011;794;48.592;9.634;2024-02-14T00:45:35;5.23;;;1.60;;
1601;SDS011;794;48.592;9.634;2024-02-14T00:48:03;6.07;;;1.97;;
1601;SDS011;794;48.592;9.634;2024-02-14T00:50:32;2.07;;;1.30;;
1601;SDS011;794;48.592;9.634;2024-02-14T00:52:59;2.13;;;2.00;;
1601;SDS011;794;48.592;9.634;2024-02-14T00:55:26;4.20;;;1.87;;
1601;SDS011;794;48.592;9.634;2024-02-14T00:57:53;2.10;;;1.60;;
1601;SDS011;794;48.592;9.634;2024-02-14T01:00:20;6.03;;;2.10;;
1601;SDS011;794;48.592;9.634;2024-02-14T01:02:47;2.97;;;2.03;;
1601;SDS011;794;48.592;9.634;2024-02-14T01:05:14;2.73;;;1.53;;
1601;SDS011;794;48.592;9.634;2024-02-14T01:07:42;1.80;;;1.70;;
1601;SDS011;794;48.592;9.634;2024-02-14T01:10:11;6.10;;;2.23;;
1601;SDS011;794;48.592;9.634;2024-02-14T01:12:38;2.87;;;2.60;;
1601;SDS011;794;48.592;9.634;2024-02-14T01:15:06;6.90;;;2.93;;
1601;SDS011;794;48.592;9.634;2024-02-14T01:17:33;2.90;;;1.90;;
1601;SDS011;794;48.592;9.634;2024-02-14T01:20:03;4.67;;;1.57;;
1601;SDS011;794;48.592;9.634;2024-02-14T01:22:31;2.43;;;2.10;;
1601;SDS011;794;48.592;9.634;2024-02-14T01:24:59;2.17;;;1.97;;
1601;SDS011;794;48.592;9.634;2024-02-14T01:27:26;2.20;;;2.00;;
1601;SDS011;794;48.592;9.634;2024-02-14T01:29:54;3.10;;;2.40;;
1601;SDS011;794;48.592;9.634;2024-02-14T01:32:22;3.13;;;2.00;;
1601;SDS011;794;48.592;9.634;2024-02-14T01:34:51;2.33;;;1.73;;
1601;SDS011;794;48.592;9.634;2024-02-14T01:37:18;2.60;;;1.90;;
1601;SDS011;794;48.592;9.634;2024-02-14T01:39:45;7.03;;;2.27;;
1601;SDS011;794;48.592;9.634;2024-02-14T01:42:14;2.73;;;2.30;;
1601;SDS011;794;48.592;9.634;2024-02-14T01:44:41;4.27;;;2.10;;
1601;SDS011;794;48.592;9.634;2024-02-14T01:47:08;2.70;;;2.27;;
1601;SDS011;794;48.592;9.634;2024-02-14T01:49:35;4.07;;;1.97;;
1601;SDS011;794;48.592;9.634;2024-02-14T01:52:03;2.33;;;1.87;;
1601;SDS011;794;48.592;9.634;2024-02-14T01:54:31;4.13;;;2.20;;
1601;SDS011;794;48.592;9.634;2024-02-14T01:56:59;4.00;;;2.07;;
1601;SDS011;794;48.592;9.634;2024-02-14T01:59:29;2.40;;;2.10;;
1601;SDS011;794;48.592;9.634;2024-02-14T02:01:56;3.10;;;2.33;;
1601;SDS011;794;48.592;9.634;2024-02-14T02:04:23;2.40;;;1.60;;
1601;SDS011;794;48.592;9.634;2024-02-14T02:06:50;2.27;;;2.00;;
1601;SDS011;794;48.592;9.634;2024-02-14T02:09:17;3.77;;;1.83;;
1601;SDS011;794;48.592;9.634;2024-02-14T02:11:48;2.73;;;2.53;;
1601;SDS011;794;48.592;9.634;2024-02-14T02:14:15;2.67;;;2.20;;
1601;SDS011;794;48.592;9.634;2024-02-14T02:16:44;2.50;;;2.30;;
1601;SDS011;794;48.592;9.634;2024-02-14T02:19:12;2.20;;;2.00;;
1601;SDS011;794;48.592;9.634;2024-02-14T02:21:41;4.93;;;2.40;;
1601;SDS011;794;48.592;9.634;2024-02-14T02:24:10;1.80;;;1.70;;
1601;SDS011;794;48.592;9.634;2024-02-14T02:26:37;4.00;;;1.90;;
1601;SDS011;794;48.592;9.634;2024-02-14T02:29:04;1.90;;;1.80;;
1601;SDS011;794;48.592;9.634;2024-02-14T02:31:31;2.10;;;1.90;;
1601;SDS011;794;48.592;9.634;2024-02-14T02:33:58;2.43;;;2.23;;
1601;SDS011;794;48.592;9.634;2024-02-14T02:36:25;3.03;;;2.23;;
1601;SDS011;794;48.592;9.634;2024-02-14T02:38:55;2.30;;;2.03;;
1601;SDS011;794;48.592;9.634;2024-02-14T02:41:22;2.90;;;2.30;;
1601;SDS011;794;48.592;9.634;2024-02-14T02:43:49;2.73;;;1.60;;
1601;SDS011;794;48.592;9.634;2024-02-14T02:46:18;2.60;;;2.40;;
1601;SDS011;794;48.592;9.634;2024-02-14T02:48:45;2.77;;;2.57;;
1601;SDS011;794;48.592;9.634;2024-02-14T02:51:12;3.10;;;2.80;;
1601;SDS011;794;48.592;9.634;2024-02-14T02:53:41;3.40;;;2.03;;
1601;SDS011;794;48.592;9.634;2024-02-14T02:56:08;6.50;;;3.00;;
1601;SDS011;794;48.592;9.634;2024-02-14T02:58:38;3.83;;;2.30;;
1601;SDS011;794;48.592;9.634;2024-02-14T03:01:07;3.53;;;2.30;;
1601;SDS011;794;48.592;9.634;2024-02-14T03:03:34;4.83;;;2.50;;
1601;SDS011;794;48.592;9.634;2024-02-14T03:06:04;2.90;;;2.60;;
1601;SDS011;794;48.592;9.634;2024-02-14T03:08:31;2.70;;;2.50;;
1601;SDS011;794;48.592;9.634;2024-02-14T03:11:01;5.20;;;2.43;;
1601;SDS011;794;48.592;9.634;2024-02-14T03:13:30;4.07;;;2.40;;
1601;SDS011;794;48.592;9.634;2024-02-14T03:15:58;5.07;;;2.20;;
1601;SDS011;794;48.592;9.634;2024-02-14T03:18:25;2.43;;;2.03;;
1601;SDS011;794;48.592;9.634;2024-02-14T03:20:52;2.40;;;1.67;;
1601;SDS011;794;48.592;9.634;2024-02-14T03:23:19;2.43;;;2.00;;
1601;SDS011;794;48.592;9.634;2024-02-14T03:25:47;2.27;;;2.07;;
1601;SDS011;794;48.592;9.634;2024-02-14T03:28:14;4.90;;;2.20;;
1601;SDS011;794;48.592;9.634;2024-02-14T03:30:41;2.20;;;2.07;;
1601;SDS011;794;48.592;9.634;2024-02-14T03:33:09;4.93;;;2.20;;
1601;SDS011;794;48.592;9.634;2024-02-14T03:35:36;2.43;;;2.20;;
1601;SDS011;794;48.592;9.634;2024-02-14T03:38:03;7.40;;;1.97;;
1601;SDS011;794;48.592;9.634;2024-02-14T03:40:33;2.07;;;1.80;;
1601;SDS011;794;48.592;9.634;2024-02-14T03:43:00;2.87;;;2.23;;
1601;SDS011;794;48.592;9.634;2024-02-14T03:45:28;1.73;;;1.63;;
1601;SDS011;794;48.592;9.634;2024-02-14T03:47:55;2.73;;;1.80;;
1601;SDS011;794;48.592;9.634;2024-02-14T03:50:23;4.00;;;2.53;;
1601;SDS011;794;48.592;9.634;2024-02-14T03:52:50;2.23;;;1.90;;
1601;SDS011;794;48.592;9.634;2024-02-14T03:55:18;2.17;;;1.80;;
1601;SDS011;794;48.592;9.634;2024-02-14T03:57:44;5.80;;;2.83;;
1601;SDS011;794;48.592;9.634;2024-02-14T04:00:12;6.03;;;2.70;;
1601;SDS011;794;48.592;9.634;2024-02-14T04:02:39;3.10;;;2.60;;
1601;SDS011;794;48.592;9.634;2024-02-14T04:05:07;2.57;;;2.17;;
1601;SDS011;794;48.592;9.634;2024-02-14T04:07:35;4.17;;;2.43;;
1601;SDS011;794;48.592;9.634;2024-02-14T04:10:03;2.20;;;1.97;;
1601;SDS011;794;48.592;9.634;2024-02-14T04:12:30;4.53;;;2.63;;
1601;SDS011;794;48.592;9.634;2024-02-14T04:14:57;5.63;;;3.30;;
1601;SDS011;794;48.592;9.634;2024-02-14T04:17:24;3.13;;;2.83;;
1601;SDS011;794;48.592;9.634;2024-02-14T04:19:51;2.87;;;2.50;;
1601;SDS011;794;48.592;9.634;2024-02-14T04:22:18;3.17;;;2.87;;
1601;SDS011;794;48.592;9.634;2024-02-14T04:24:47;2.80;;;2.60;;
1601;SDS011;794;48.592;9.634;2024-02-14T04:27:14;5.43;;;3.33;;
1601;SDS011;794;48.592;9.634;2024-02-14T04:29:44;5.40;;;3.50;;
1601;SDS011;794;48.592;9.634;2024-02-14T04:32:11;5.87;;;3.93;;
1601;SDS011;794;48.592;9.634;2024-02-14T04:34:39;3.77;;;3.00;;
1601;SDS011;794;48.592;9.634;2024-02-14T04:37:07;5.03;;;3.80;;
1601;SDS011;794;48.592;9.634;2024-02-14T04:39:37;4.73;;;3.40;;
1601;SDS011;794;48.592;9.634;2024-02-14T04:42:05;4.93;;;2.90;;
1601;SDS011;794;48.592;9.634;2024-02-14T04:44:32;6.03;;;3.17;;
1601;SDS011;794;48.592;9.634;2024-02-14T04:47:00;3.07;;;2.70;;
1601;SDS011;794;48.592;9.634;2024-02-14T04:49:27;3.90;;;3.07;;
1601;SDS011;794;48.592;9.634;2024-02-14T04:51:54;4.53;;;3.20;;
1601;SDS011;794;48.592;9.634;2024-02-14T04:54:21;2.90;;;2.17;;
1601;SDS011;794;48.592;9.634;2024-02-14T04:56:49;3.50;;;3.20;;
1601;SDS011;794;48.592;9.634;2024-02-14T04:59:18;5.10;;;3.17;;
1601;SDS011;794;48.592;9.634;2024-02-14T05:01:44;4.10;;;3.50;;
1601;SDS011;794;48.592;9.634;2024-02-14T05:04:11;4.57;;;3.37;;
1601;SDS011;794;48.592;9.634;2024-02-14T05:06:39;4.00;;;2.87;;
1601;SDS011;794;48.592;9.634;2024-02-14T05:09:07;4.50;;;3.80;;
1601;SDS011;794;48.592;9.634;2024-02-14T05:11:35;3.33;;;3.03;;
1601;SDS011;794;48.592;9.634;2024-02-14T05:14:02;5.33;;;2.90;;
1601;SDS011;794;48.592;9.634;2024-02-14T05:16:31;3.50;;;3.20;;
1601;SDS011;794;48.592;9.634;2024-02-14T05:18:58;4.90;;;2.90;;
1601;SDS011;794;48.592;9.634;2024-02-14T05:21:26;4.17;;;3.20;;
1601;SDS011;794;48.592;9.634;2024-02-14T05:23:53;4.43;;;2.90;;
1601;SDS011;794;48.592;9.634;2024-02-14T05:26:20;5.23;;;3.30;;
1601;SDS011;794;48.592;9.634;2024-02-14T05:28:47;3.43;;;2.80;;
1601;SDS011;794;48.592;9.634;2024-02-14T05:31:14;20.97;;;13.57;;
1601;SDS011;794;48.592;9.634;2024-02-14T05:33:42;20.93;;;12.40;;
1601;SDS011;794;48.592;9.634;2024-02-14T05:36:09;4.70;;;4.30;;
1601;SDS011;794;48.592;9.634;2024-02-14T05:38:36;7.70;;;5.03;;
1601;SDS011;794;48.592;9.634;2024-02-14T05:41:03;6.30;;;5.00;;
1601;SDS011;794;48.592;9.634;2024-02-14T05:43:32;4.00;;;3.60;;
1601;SDS011;794;48.592;9.634;2024-02-14T05:45:59;3.80;;;3.40;;
1601;SDS011;794;48.592;9.634;2024-02-14T05:48:26;5.93;;;3.83;;
1601;SDS011;794;48.592;9.634;2024-02-14T05:50:55;5.33;;;4.13;;
1601;SDS011;794;48.592;9.634;2024-02-14T05:53:21;6.90;;;4.90;;
1601;SDS011;794;48.592;9.634;2024-02-14T05:55:48;6.53;;;4.40;;
1601;SDS011;794;48.592;9.634;2024-02-14T05:58:15;4.37;;;3.97;;
1601;SDS011;794;48.592;9.634;2024-02-14T06:00:42;6.60;;;4.00;;
1601;SDS011;794;48.592;9.634;2024-02-14T06:03:09;5.10;;;3.87;;
1601;SDS011;794;48.592;9.634;2024-02-14T06:05:36;3.43;;;3.13;;
1601;SDS011;794;48.592;9.634;2024-02-14T06:08:04;3.80;;;3.20;;
1601;SDS011;794;48.592;9.634;2024-02-14T06:10:32;8.40;;;3.40;;
1601;SDS011;794;48.592;9.634;2024-02-14T06:13:00;5.00;;;3.27;;
1601;SDS011;794;48.592;9.634;2024-02-14T06:15:27;3.40;;;2.67;;
1601;SDS011;794;48.592;9.634;2024-02-14T06:17:54;3.03;;;2.53;;
1601;SDS011;794;48.592;9.634;2024-02-14T06:20:21;6.80;;;3.57;;
1601;SDS011;794;48.592;9.634;2024-02-14T06:22:48;3.10;;;2.83;;
1601;SDS011;794;48.592;9.634;2024-02-14T06:25:16;3.13;;;2.30;;
1601;SDS011;794;48.592;9.634;2024-02-14T06:27:43;8.20;;;2.40;;
1601;SDS011;794;48.592;9.634;2024-02-14T06:30:10;10.60;;;2.90;;
1601;SDS011;794;48.592;9.634;2024-02-14T06:32:38;2.20;;;1.37;;
1601;SDS011;794;48.592;9.634;2024-02-14T06:35:05;2.60;;;2.17;;
1601;SDS011;794;48.592;9.634;2024-02-14T06:37:32;1.23;;;1.13;;
1601;SDS011;794;48.592;9.634;2024-02-14T06:39:59;2.10;;;1.50;;
1601;SDS011;794;48.592;9.634;2024-02-14T06:42:28;1.67;;;1.57;;
1601;SDS011;794;48.592;9.634;2024-02-14T06:44:54;2.63;;;1.60;;
1601;SDS011;794;48.592;9.634;2024-02-14T06:47:21;2.67;;;1.60;;
1601;SDS011;794;48.592;9.634;2024-02-14T06:49:48;1.20;;;1.10;;
1601;SDS011;794;48.592;9.634;2024-02-14T06:52:15;1.33;;;1.00;;
1601;SDS011;794;48.592;9.634;2024-02-14T06:54:42;2.30;;;1.27;;
1601;SDS011;794;48.592;9.634;2024-02-14T06:57:10;2.67;;;1.40;;
1601;SDS011;794;48.592;9.634;2024-02-14T06:59:40;4.33;;;1.23;;
1601;SDS011;794;48.592;9.634;2024-02-14T07:02:07;2.43;;;1.70;;
1601;SDS011;794;48.592;9.634;2024-02-14T07:04:34;1.63;;;1.53;;
1601;SDS011;794;48.592;9.634;2024-02-14T07:07:02;3.17;;;1.67;;
1601;SDS011;794;48.592;9.634;2024-02-14T07:09:29;2.33;;;1.50;;
1601;SDS011;794;48.592;9.634;2024-02-14T07:11:57;5.60;;;2.60;;
1601;SDS011;794;48.592;9.634;2024-02-14T07:14:24;3.97;;;2.93;;
1601;SDS011;794;48.592;9.634;2024-02-14T07:16:53;5.40;;;2.20;;
1601;SDS011;794;48.592;9.634;2024-02-14T07:19:19;2.17;;;1.20;;
1601;SDS011;794;48.592;9.634;2024-02-14T07:21:46;1.53;;;1.40;;
1601;SDS011;794;48.592;9.634;2024-02-14T07:24:13;2.87;;;1.63;;
1601;SDS011;794;48.592;9.634;2024-02-14T07:26:40;5.40;;;3.43;;
1601;SDS011;794;48.592;9.634;2024-02-14T07:29:09;5.23;;;4.23;;
1601;SDS011;794;48.592;9.634;2024-02-14T07:31:36;7.53;;;4.73;;
1601;SDS011;794;48.592;9.634;2024-02-14T07:34:05;8.43;;;3.90;;
1601;SDS011;794;48.592;9.634;2024-02-14T07:36:32;4.60;;;3.70;;
1601;SDS011;794;48.592;9.634;2024-02-14T07:38:59;5.63;;;4.30;;
1601;SDS011;794;48.592;9.634;2024-02-14T07:41:26;8.73;;;5.00;;
1601;SDS011;794;48.592;9.634;2024-02-14T07:43:52;7.37;;;5.30;;
1601;SDS011;794;48.592;9.634;2024-02-14T07:46:21;6.03;;;5.13;;
1601;SDS011;794;48.592;9.634;2024-02-14T07:48:51;10.00;;;5.67;;
1601;SDS011;794;48.592;9.634;2024-02-14T07:51:20;7.10;;;5.20;;
1601;SDS011;794;48.592;9.634;2024-02-14T07:53:47;7.13;;;5.30;;
1601;SDS011;794;48.592;9.634;2024-02-14T07:56:15;9.40;;;5.10;;
1601;SDS011;794;48.592;9.634;2024-02-14T07:58:43;7.87;;;6.13;;
1601;SDS011;794;48.592;9.634;2024-02-14T08:01:10;6.13;;;4.43;;
1601;SDS011;794;48.592;9.634;2024-02-14T08:03:37;6.33;;;4.70;;
1601;SDS011;794;48.592;9.634;2024-02-14T08:06:04;6.77;;;6.07;;
1601;SDS011;794;48.592;9.634;2024-02-14T08:08:32;5.90;;;5.30;;
1601;SDS011;794;48.592;9.634;2024-02-14T08:11:00;8.17;;;6.93;;
1601;SDS011;794;48.592;9.634;2024-02-14T08:13:27;6.47;;;5.70;;
1601;SDS011;794;48.592;9.634;2024-02-14T08:15:56;3.97;;;3.07;;
1601;SDS011;794;48.592;9.634;2024-02-14T08:18:23;1.30;;;1.20;;
1601;SDS011;794;48.592;9.634;2024-02-14T08:20:52;1.10;;;0.73;;
1601;SDS011;794;48.592;9.634;2024-02-14T08:23:20;2.60;;;1.17;;
1601;SDS011;794;48.592;9.634;2024-02-14T08:25:49;1.83;;;0.93;;
1601;SDS011;794;48.592;9.634;2024-02-14T08:28:16;1.00;;;0.90;;
1601;SDS011;794;48.592;9.634;2024-02-14T08:30:44;1.37;;;0.80;;
1601;SDS011;794;48.592;9.634;2024-02-14T08:33:11;0.97;;;0.77;;
1601;SDS011;794;48.592;9.634;2024-02-14T08:35:38;3.17;;;1.00;;
1601;SDS011;794;48.592;9.634;2024-02-14T08:38:05;0.90;;;0.70;;
1601;SDS011;794;48.592;9.634;2024-02-14T08:40:33;1.90;;;1.00;;
1601;SDS011;794;48.592;9.634;2024-02-14T08:43:01;1.03;;;0.90;;
1601;SDS011;794;48.592;9.634;2024-02-14T08:45:29;4.10;;;2.10;;
1601;SDS011;794;48.592;9.634;2024-02-14T08:47:56;1.97;;;0.67;;
1601;SDS011;794;48.592;9.634;2024-02-14T08:50:23;1.00;;;0.90;;
1601;SDS011;794;48.592;9.634;2024-02-14T08:52:50;2.43;;;1.10;;
1601;SDS011;794;48.592;9.634;2024-02-14T08:55:17;2.57;;;1.30;;
1601;SDS011;794;48.592;9.634;2024-02-14T08:57:44;1.60;;;1.13;;
1601;SDS011;794;48.592;9.634;2024-02-14T09:00:15;1.97;;;1.23;;
1601;SDS011;794;48.592;9.634;2024-02-14T09:02:44;1.10;;;1.00;;
1601;SDS011;794;48.592;9.634;2024-02-14T09:05:13;1.97;;;0.97;;
1601;SDS011;794;48.592;9.634;2024-02-14T09:07:41;3.33;;;0.90;;
1601;SDS011;794;48.592;9.634;2024-02-14T09:10:09;3.00;;;0.83;;
1601;SDS011;794;48.592;9.634;2024-02-14T09:12:37;2.20;;;1.10;;
1601;SDS011;794;48.592;9.634;2024-02-14T09:15:06;2.50;;;1.00;;
1601;SDS011;794;48.592;9.634;2024-02-14T09:17:35;2.43;;;0.80;;
1601;SDS011;794;48.592;9.634;2024-02-14T09:20:02;5.43;;;1.30;;
1601;SDS011;794;48.592;9.634;2024-02-14T09:22:31;2.03;;;1.40;;
1601;SDS011;794;48.592;9.634;2024-02-14T09:24:59;1.03;;;0.90;;
1601;SDS011;794;48.592;9.634;2024-02-14T09:27:26;0.90;;;0.90;;
1601;SDS011;794;48.592;9.634;2024-02-14T09:29:53;0.80;;;0.80;;
1601;SDS011;794;48.592;9.634;2024-02-14T09:32:19;1.83;;;1.20;;
1601;SDS011;794;48.592;9.634;2024-02-14T09:34:48;1.00;;;0.77;;
1601;SDS011;794;48.592;9.634;2024-02-14T09:37:15;0.97;;;0.90;;
1601;SDS011;794;48.592;9.634;2024-02-14T09:39:44;1.43;;;0.80;;
1601;SDS011;794;48.592;9.634;2024-02-14T09:42:11;2.70;;;0.90;;
1601;SDS011;794;48.592;9.634;2024-02-14T09:44:42;2.50;;;0.97;;
1601;SDS011;794;48.592;9.634;2024-02-14T09:47:10;1.47;;;1.00;;
1601;SDS011;794;48.592;9.634;2024-02-14T09:49:37;1.50;;;1.30;;
1601;SDS011;794;48.592;9.634;2024-02-14T09:52:07;2.03;;;1.30;;
1601;SDS011;794;48.592;9.634;2024-02-14T09:54:36;1.80;;;0.87;;
1601;SDS011;794;48.592;9.634;2024-02-14T09:57:04;1.27;;;1.00;;
1601;SDS011;794;48.592;9.634;2024-02-14T09:59:32;1.30;;;0.80;;
1601;SDS011;794;48.592;9.634;2024-02-14T10:01:59;1.20;;;1.10;;
1601;SDS011;794;48.592;9.634;2024-02-14T10:04:27;1.03;;;0.93;;
1601;SDS011;794;48.592;9.634;2024-02-14T10:06:54;2.87;;;1.10;;
1601;SDS011;794;48.592;9.634;2024-02-14T10:09:22;2.10;;;1.37;;
1601;SDS011;794;48.592;9.634;2024-02-14T10:11:51;3.53;;;1.60;;
1601;SDS011;794;48.592;9.634;2024-02-14T10:14:19;2.87;;;1.40;;
1601;SDS011;794;48.592;9.634;2024-02-14T10:16:46;2.60;;;1.10;;
1601;SDS011;794;48.592;9.634;2024-02-14T10:19:16;1.70;;;1.10;;
1601;SDS011;794;48.592;9.634;2024-02-14T10:21:43;2.63;;;1.03;;
1601;SDS011;794;48.592;9.634;2024-02-14T10:24:21;3.67;;;1.43;;
1601;SDS011;794;48.592;9.634;2024-02-14T10:26:49;1.07;;;0.97;;
1601;SDS011;794;48.592;9.634;2024-02-14T10:29:17;2.47;;;0.93;;
1601;SDS011;794;48.592;9.634;2024-02-14T10:31:45;3.70;;;1.33;;
1601;SDS011;794;48.592;9.634;2024-02-14T10:34:12;1.57;;;0.90;;
1601;SDS011;794;48.592;9.634;2024-02-14T10:36:40;2.87;;;1.20;;
1601;SDS011;794;48.592;9.634;2024-02-14T10:39:10;0.90;;;0.90;;
1601;SDS011;794;48.592;9.634;2024-02-14T10:41:38;1.83;;;0.60;;
1601;SDS011;794;48.592;9.634;2024-02-14T10:44:05;1.70;;;1.00;;
1601;SDS011;794;48.592;9.634;2024-02-14T10:46:35;1.50;;;1.03;;
1601;SDS011;794;48.592;9.634;2024-02-14T10:49:04;1.80;;;1.00;;
1601;SDS011;794;48.592;9.634;2024-02-14T10:51:33;0.80;;;0.80;;
1601;SDS011;794;48.592;9.634;2024-02-14T10:54:02;0.70;;;0.70;;
1601;SDS011;794;48.592;9.634;2024-02-14T10:56:40;1.10;;;0.97;;
1601;SDS011;794;48.592;9.634;2024-02-14T10:59:18;1.77;;;0.93;;
1601;SDS011;794;48.592;9.634;2024-02-14T11:01:51;0.60;;;0.53;;
1601;SDS011;794;48.592;9.634;2024-02-14T11:04:29;2.00;;;0.70;;
1601;SDS011;794;48.592;9.634;2024-02-14T11:07:13;0.60;;;0.50;;
1601;SDS011;794;48.592;9.634;2024-02-14T11:09:43;1.70;;;0.60;;
1601;SDS011;794;48.592;9.634;2024-02-14T11:12:11;0.77;;;0.60;;
1601;SDS011;794;48.592;9.634;2024-02-14T11:14:38;1.67;;;0.80;;
1601;SDS011;794;48.592;9.634;2024-02-14T11:17:10;2.23;;;0.80;;
1601;SDS011;794;48.592;9.634;2024-02-14T11:19:39;1.57;;;0.80;;
1601;SDS011;794;48.592;9.634;2024-02-14T11:22:12;0.80;;;0.70;;
1601;SDS011;794;48.592;9.634;2024-02-14T11:24:45;0.60;;;0.60;;
1601;SDS011;794;48.592;9.634;2024-02-14T11:27:14;0.80;;;0.70;;
1601;SDS011;794;48.592;9.634;2024-02-14T11:29:51;1.00;;;0.80;;
1601;SDS011;794;48.592;9.634;2024-02-14T11:32:18;2.30;;;1.10;;
1601;SDS011;794;48.592;9.634;2024-02-14T11:34:52;3.60;;;0.93;;
1601;SDS011;794;48.592;9.634;2024-02-14T11:37:20;2.33;;;0.90;;
1601;SDS011;794;48.592;9.634;2024-02-14T11:39:53;1.43;;;1.30;;
1601;SDS011;794;48.592;9.634;2024-02-14T11:42:24;0.90;;;0.70;;
1601;SDS011;794;48.592;9.634;2024-02-14T11:44:52;0.80;;;0.70;;
1601;SDS011;794;48.592;9.634;2024-02-14T11:47:20;0.80;;;0.80;;
1601;SDS011;794;48.592;9.634;2024-02-14T11:49:48;1.50;;;1.27;;
1601;SDS011;794;48.592;9.634;2024-02-14T11:52:15;1.67;;;1.27;;
1601;SDS011;794;48.592;9.634;2024-02-14T11:54:45;0.80;;;0.80;;
1601;SDS011;794;48.592;9.634;2024-02-14T11:57:16;3.80;;;1.37;;
1601;SDS011;794;48.592;9.634;2024-02-14T11:59:45;1.17;;;0.90;;
1601;SDS011;794;48.592;9.634;2024-02-14T12:02:17;0.70;;;0.70;;
1601;SDS011;794;48.592;9.634;2024-02-14T12:04:45;0.80;;;0.80;;
1601;SDS011;794;48.592;9.634;2024-02-14T12:07:15;2.87;;;0.73;;
1601;SDS011;794;48.592;9.634;2024-02-14T12:09:43;1.00;;;0.90;;
1601;SDS011;794;48.592;9.634;2024-02-14T12:12:10;2.50;;;0.87;;
1601;SDS011;794;48.592;9.634;2024-02-14T12:14:37;0.93;;;0.70;;
1601;SDS011;794;48.592;9.634;2024-02-14T12:17:05;3.27;;;1.30;;
1601;SDS011;794;48.592;9.634;2024-02-14T12:19:32;2.30;;;2.10;;
1601;SDS011;794;48.592;9.634;2024-02-14T12:22:00;1.47;;;1.17;;
1601;SDS011;794;48.592;9.634;2024-02-14T12:24:27;1.30;;;1.00;;
1601;SDS011;794;48.592;9.634;2024-02-14T12:26:55;0.97;;;0.87;;
1601;SDS011;794;48.592;9.634;2024-02-14T12:29:23;1.10;;;1.00;;
1601;SDS011;794;48.592;9.634;2024-02-14T12:31:50;0.90;;;0.90;;
1601;SDS011;794;48.592;9.634;2024-02-14T12:34:18;1.53;;;1.43;;
1601;SDS011;794;48.592;9.634;2024-02-14T12:36:46;1.63;;;1.00;;
1601;SDS011;794;48.592;9.634;2024-02-14T12:39:13;1.73;;;1.27;;
1601;SDS011;794;48.592;9.634;2024-02-14T12:41:40;1.00;;;0.80;;
1601;SDS011;794;48.592;9.634;2024-02-14T12:44:07;2.07;;;1.00;;
1601;SDS011;794;48.592;9.634;2024-02-14T12:46:34;2.90;;;0.80;;
1601;SDS011;794;48.592;9.634;2024-02-14T12:49:03;1.20;;;0.70;;
1601;SDS011;794;48.592;9.634;2024-02-14T12:51:30;1.10;;;1.00;;
1601;SDS011;794;48.592;9.634;2024-02-14T12:53:58;3.03;;;0.93;;
1601;SDS011;794;48.592;9.634;2024-02-14T12:56:25;1.20;;;1.10;;
1601;SDS011;794;48.592;9.634;2024-02-14T12:58:52;1.37;;;1.20;;
1601;SDS011;794;48.592;9.634;2024-02-14T13:01:19;0.90;;;0.80;;
1601;SDS011;794;48.592;9.634;2024-02-14T13:03:46;1.47;;;0.70;;
1601;SDS011;794;48.592;9.634;2024-02-14T13:06:13;1.37;;;0.77;;
1601;SDS011;794;48.592;9.634;2024-02-14T13:08:42;1.30;;;1.00;;
1601;SDS011;794;48.592;9.634;2024-02-14T13:11:09;1.10;;;0.83;;
1601;SDS011;794;48.592;9.634;2024-02-14T13:13:36;1.80;;;0.90;;
1601;SDS011;794;48.592;9.634;2024-02-14T13:16:03;3.23;;;1.10;;
1601;SDS011;794;48.592;9.634;2024-02-14T13:18:31;1.30;;;1.20;;
1601;SDS011;794;48.592;9.634;2024-02-14T13:20:58;2.83;;;0.90;;
1601;SDS011;794;48.592;9.634;2024-02-14T13:23:26;0.97;;;0.87;;
1601;SDS011;794;48.592;9.634;2024-02-14T13:25:54;1.70;;;0.97;;
1601;SDS011;794;48.592;9.634;2024-02-14T13:28:21;2.50;;;1.00;;
1601;SDS011;794;48.592;9.634;2024-02-14T13:30:48;0.80;;;0.80;;
1601;SDS011;794;48.592;9.634;2024-02-14T13:33:15;1.60;;;0.90;;
1601;SDS011;794;48.592;9.634;2024-02-14T13:35:42;2.40;;;1.90;;
1601;SDS011;794;48.592;9.634;2024-02-14T13:38:09;0.70;;;0.70;;
1601;SDS011;794;48.592;9.634;2024-02-14T13:40:36;2.70;;;0.60;;
1601;SDS011;794;48.592;9.634;2024-02-14T13:43:07;0.77;;;0.60;;
1601;SDS011;794;48.592;9.634;2024-02-14T13:45:40;0.70;;;0.70;;
1601;SDS011;794;48.592;9.634;2024-02-14T13:48:08;1.00;;;0.90;;
1601;SDS011;794;48.592;9.634;2024-02-14T13:50:35;1.23;;;0.70;;
1601;SDS011;794;48.592;9.634;2024-02-14T13:53:03;0.90;;;0.67;;
1601;SDS011;794;48.592;9.634;2024-02-14T13:55:30;2.77;;;0.90;;
1601;SDS011;794;48.592;9.634;2024-02-14T13:57:57;1.63;;;0.67;;
1601;SDS011;794;48.592;9.634;2024-02-14T14:00:25;0.60;;;0.50;;
1601;SDS011;794;48.592;9.634;2024-02-14T14:02:52;3.40;;;0.67;;
1601;SDS011;794;48.592;9.634;2024-02-14T14:05:20;1.00;;;0.70;;
1601;SDS011;794;48.592;9.634;2024-02-14T14:07:47;0.97;;;0.70;;
1601;SDS011;794;48.592;9.634;2024-02-14T14:10:14;0.67;;;0.50;;
1601;SDS011;794;48.592;9.634;2024-02-14T14:12:42;0.70;;;0.50;;
1601;SDS011;794;48.592;9.634;2024-02-14T14:15:09;0.83;;;0.50;;
1601;SDS011;794;48.592;9.634;2024-02-14T14:17:37;0.70;;;0.60;;
1601;SDS011;794;48.592;9.634;2024-02-14T14:20:04;1.40;;;0.77;;
1601;SDS011;794;48.592;9.634;2024-02-14T14:22:33;0.87;;;0.50;;
1601;SDS011;794;48.592;9.634;2024-02-14T14:25:00;0.97;;;0.60;;
1601;SDS011;794;48.592;9.634;2024-02-14T14:27:27;1.13;;;0.60;;
1601;SDS011;794;48.592;9.634;2024-02-14T14:29:54;0.60;;;0.50;;
1601;SDS011;794;48.592;9.634;2024-02-14T14:32:21;1.03;;;0.70;;
1601;SDS011;794;48.592;9.634;2024-02-14T14:34:49;1.40;;;0.70;;
1601;SDS011;794;48.592;9.634;2024-02-14T14:37:16;1.00;;;0.60;;
1601;SDS011;794;48.592;9.634;2024-02-14T14:39:43;0.90;;;0.57;;
1601;SDS011;794;48.592;9.634;2024-02-14T14:42:10;0.73;;;0.50;;
1601;SDS011;794;48.592;9.634;2024-02-14T14:44:37;0.90;;;0.90;;
1601;SDS011;794;48.592;9.634;2024-02-14T14:47:05;0.60;;;0.53;;
1601;SDS011;794;48.592;9.634;2024-02-14T14:49:32;2.07;;;1.10;;
1601;SDS011;794;48.592;9.634;2024-02-14T14:52:01;0.90;;;0.63;;
1601;SDS011;794;48.592;9.634;2024-02-14T14:54:29;0.60;;;0.60;;
1601;SDS011;794;48.592;9.634;2024-02-14T14:56:56;0.60;;;0.57;;
1601;SDS011;794;48.592;9.634;2024-02-14T14:59:23;0.60;;;0.50;;
1601;SDS011;794;48.592;9.634;2024-02-14T15:01:50;1.90;;;0.77;;
1601;SDS011;794;48.592;9.634;2024-02-14T15:04:19;1.73;;;0.87;;
1601;SDS011;794;48.592;9.634;2024-02-14T15:06:46;1.30;;;0.83;;
1601;SDS011;794;48.592;9.634;2024-02-14T15:09:16;1.00;;;0.90;;
1601;SDS011;794;48.592;9.634;2024-02-14T15:11:43;0.87;;;0.80;;
1601;SDS011;794;48.592;9.634;2024-02-14T15:14:10;1.33;;;0.50;;
1601;SDS011;794;48.592;9.634;2024-02-14T15:16:37;0.80;;;0.60;;
1601;SDS011;794;48.592;9.634;2024-02-14T15:19:04;0.60;;;0.40;;
1601;SDS011;794;48.592;9.634;2024-02-14T15:21:32;1.60;;;0.60;;
1601;SDS011;794;48.592;9.634;2024-02-14T15:23:59;0.50;;;0.50;;
1601;SDS011;794;48.592;9.634;2024-02-14T15:26:27;0.73;;;0.50;;
1601;SDS011;794;48.592;9.634;2024-02-14T15:28:55;3.63;;;2.27;;
1601;SDS011;794;48.592;9.634;2024-02-14T15:31:42;17.47;;;10.63;;
1601;SDS011;794;48.592;9.634;2024-02-14T15:34:26;1.00;;;0.50;;